createdAt,value
2024-01-24T00:01:04.924Z,12.98
2024-01-24T00:03:48.519Z,9.85
2024-01-24T00:06:16.083Z,9.57
2024-01-24T00:08:43.857Z,10.45
2024-01-24T00:11:11.333Z,11.10
2024-01-24T00:13:39.013Z,25.65
2024-01-24T00:16:09.809Z,13.73
2024-01-24T00:18:38.015Z,21.45
2024-01-24T00:21:07.367Z,11.02
2024-01-24T00:23:35.058Z,30.77
2024-01-24T00:26:02.897Z,13.15
2024-01-24T00:28:31.088Z,19.30
2024-01-24T00:31:01.165Z,13.45
2024-01-24T00:33:30.815Z,12.00
2024-01-24T00:35:58.399Z,33.28
2024-01-24T00:38:26.547Z,26.77
2024-01-24T00:40:54.042Z,15.98
2024-01-24T00:43:22.549Z,14.05
2024-01-24T00:45:50.060Z,14.35
2024-01-24T00:48:17.966Z,15.13
2024-01-24T00:50:46.571Z,11.60
2024-01-24T00:53:20.135Z,13.93
2024-01-24T00:55:48.256Z,11.05
2024-01-24T00:58:16.206Z,11.32
2024-01-24T01:00:43.831Z,12.27
2024-01-24T01:03:11.800Z,9.75
2024-01-24T01:05:39.485Z,10.02
2024-01-24T01:08:08.105Z,10.00
2024-01-24T01:10:36.441Z,11.95
2024-01-24T01:13:05.663Z,7.72
2024-01-24T01:15:33.177Z,11.73
2024-01-24T01:18:01.018Z,9.02
2024-01-24T01:20:28.553Z,11.98
2024-01-24T01:22:58.812Z,17.33
2024-01-24T01:25:26.260Z,8.93
2024-01-24T01:27:56.115Z,12.80
2024-01-24T01:30:25.034Z,42.22
2024-01-24T01:32:52.894Z,22.05
2024-01-24T01:35:20.570Z,17.08
2024-01-24T01:37:48.308Z,10.05
2024-01-24T01:40:18.028Z,13.27
2024-01-24T01:42:46.464Z,10.10
2024-01-24T01:45:14.414Z,21.75
2024-01-24T01:47:42.486Z,11.75
2024-01-24T01:50:18.092Z,7.93
2024-01-24T01:52:47.148Z,7.28
2024-01-24T01:55:15.425Z,10.75
2024-01-24T01:57:45.073Z,8.05
2024-01-24T02:00:20.735Z,6.57
2024-01-24T02:02:49.791Z,7.30
2024-01-24T02:05:18.079Z,7.15
2024-01-24T02:07:47.127Z,8.23
2024-01-24T02:10:15.574Z,6.00
2024-01-24T02:12:43.510Z,7.20
2024-01-24T02:15:11.498Z,8.68
2024-01-24T02:17:39.338Z,6.50
2024-01-24T02:20:11.483Z,8.23
2024-01-24T02:25:07.164Z,6.18
2024-01-24T02:27:35.041Z,6.68
2024-01-24T02:30:02.644Z,9.40
2024-01-24T02:32:30.456Z,6.43
2024-01-24T02:34:57.885Z,6.38
2024-01-24T02:37:25.559Z,7.00
2024-01-24T02:39:52.977Z,6.00
2024-01-24T02:42:20.735Z,7.25
2024-01-24T02:44:48.249Z,5.68
2024-01-24T02:47:15.911Z,6.95
2024-01-24T02:49:43.418Z,6.40
2024-01-24T02:52:11.113Z,6.65
2024-01-24T02:54:42.800Z,7.72
2024-01-24T02:57:10.775Z,6.68
2024-01-24T02:59:38.515Z,5.90
2024-01-24T03:02:06.406Z,6.00
2024-01-24T03:04:33.887Z,5.90
2024-01-24T03:07:01.816Z,6.68
2024-01-24T03:09:29.212Z,6.53
2024-01-24T03:11:57.008Z,7.20
2024-01-24T03:14:25.879Z,7.55
2024-01-24T03:16:53.691Z,6.82
2024-01-24T03:19:21.219Z,5.25
2024-01-24T03:21:49.196Z,5.45
2024-01-24T03:24:16.701Z,6.38
2024-01-24T03:26:44.560Z,5.88
2024-01-24T03:29:12.007Z,7.65
2024-01-24T03:31:46.033Z,7.82
2024-01-24T03:34:13.924Z,5.38
2024-01-24T03:36:42.000Z,6.22
2024-01-24T03:39:13.338Z,5.97
2024-01-24T03:41:41.055Z,5.10
2024-01-24T03:44:08.445Z,6.93
2024-01-24T03:46:36.176Z,6.40
2024-01-24T03:49:03.789Z,5.60
2024-01-24T03:51:32.043Z,7.13
2024-01-24T03:53:59.700Z,5.35
2024-01-24T03:56:27.396Z,6.25
2024-01-24T03:58:55.780Z,5.53
2024-01-24T04:01:23.716Z,5.68
2024-01-24T04:03:51.185Z,5.50
2024-01-24T04:06:18.975Z,4.95
2024-01-24T04:08:46.498Z,4.90
2024-01-24T04:11:14.432Z,5.22
2024-01-24T04:13:44.284Z,4.80
2024-01-24T04:16:12.009Z,5.45
2024-01-24T04:18:39.534Z,6.10
2024-01-24T04:21:07.275Z,4.22
2024-01-24T04:23:34.783Z,6.93
2024-01-24T04:26:05.669Z,5.88
2024-01-24T04:28:33.171Z,5.93
2024-01-24T04:31:01.181Z,4.53
2024-01-24T04:33:29.103Z,5.72
2024-01-24T04:35:56.981Z,5.88
2024-01-24T04:38:25.372Z,4.50
2024-01-24T04:40:53.030Z,4.75
2024-01-24T04:43:21.087Z,6.47
2024-01-24T04:45:50.078Z,5.25
2024-01-24T04:48:17.765Z,6.43
2024-01-24T04:50:45.694Z,5.15
2024-01-24T04:53:13.285Z,4.72
2024-01-24T04:55:41.010Z,5.60
2024-01-24T04:58:08.385Z,6.03
2024-01-24T05:00:36.363Z,3.72
2024-01-24T05:03:04.264Z,4.97
2024-01-24T05:05:31.982Z,5.38
2024-01-24T05:07:59.309Z,5.22
2024-01-24T05:10:26.965Z,5.45
2024-01-24T05:12:54.515Z,4.88
2024-01-24T05:15:22.297Z,5.68
2024-01-24T05:17:49.909Z,4.68
2024-01-24T05:20:18.654Z,4.65
2024-01-24T05:22:48.681Z,4.65
2024-01-24T05:25:16.389Z,4.30
2024-01-24T05:27:43.756Z,4.13
2024-01-24T05:30:20.363Z,4.00
2024-01-24T05:32:58.884Z,4.55
2024-01-24T05:35:26.678Z,5.30
2024-01-24T05:37:54.064Z,5.05
2024-01-24T05:40:21.960Z,4.82
2024-01-24T05:42:51.284Z,5.03
2024-01-24T05:45:20.902Z,4.70
2024-01-24T05:47:48.468Z,4.70
2024-01-24T05:50:16.932Z,4.82
2024-01-24T05:52:45.770Z,4.60
2024-01-24T05:55:13.914Z,5.70
2024-01-24T05:57:41.867Z,6.45
2024-01-24T06:00:11.698Z,5.75
2024-01-24T06:02:39.172Z,4.97
2024-01-24T06:05:09.278Z,4.95
2024-01-24T06:07:37.446Z,5.47
2024-01-24T06:10:05.581Z,5.60
2024-01-24T06:12:33.448Z,5.55
2024-01-24T06:15:01.373Z,5.22
2024-01-24T06:17:29.564Z,4.82
2024-01-24T06:19:57.266Z,5.35
2024-01-24T06:22:24.658Z,4.97
2024-01-24T06:24:52.410Z,5.07
2024-01-24T06:27:20.013Z,5.25
2024-01-24T06:30:17.030Z,5.63
2024-01-24T06:32:35.196Z,6.68
2024-01-24T06:35:03.109Z,5.18
2024-01-24T06:37:30.610Z,5.75
2024-01-24T06:39:58.426Z,5.97
2024-01-24T06:42:26.495Z,8.10
2024-01-24T06:44:55.741Z,14.30
2024-01-24T06:47:23.132Z,12.68
2024-01-24T06:49:51.110Z,7.03
2024-01-24T06:52:18.527Z,8.93
2024-01-24T06:54:46.554Z,5.65
2024-01-24T06:57:14.007Z,7.05
2024-01-24T06:59:41.674Z,13.88
2024-01-24T07:02:09.041Z,6.28
2024-01-24T07:04:36.920Z,7.78
2024-01-24T07:07:05.404Z,7.68
2024-01-24T07:09:33.607Z,6.85
2024-01-24T07:12:03.519Z,8.45
2024-01-24T07:14:31.359Z,8.52
2024-01-24T07:17:00.063Z,15.32
2024-01-24T07:19:28.040Z,8.00
2024-01-24T07:21:55.561Z,6.15
2024-01-24T07:24:23.353Z,9.35
2024-01-24T07:26:50.805Z,6.50
2024-01-24T07:29:18.741Z,7.60
2024-01-24T07:31:47.487Z,6.65
2024-01-24T07:34:16.571Z,6.80
2024-01-24T07:36:44.309Z,8.13
2024-01-24T07:39:11.963Z,5.45
2024-01-24T07:41:39.418Z,6.60
2024-01-24T07:44:07.116Z,6.63
2024-01-24T07:46:34.657Z,4.75
2024-01-24T07:49:02.879Z,7.72
2024-01-24T07:51:30.479Z,7.15
2024-01-24T07:53:58.697Z,6.30
2024-01-24T07:56:27.259Z,6.40
2024-01-24T07:58:55.618Z,6.90
2024-01-24T08:01:23.424Z,5.15
2024-01-24T08:03:52.004Z,5.22
2024-01-24T08:06:19.661Z,5.90
2024-01-24T08:08:47.599Z,7.05
2024-01-24T08:11:15.534Z,3.90
2024-01-24T08:13:43.501Z,5.43
2024-01-24T08:16:11.484Z,4.25
2024-01-24T08:18:39.509Z,5.38
2024-01-24T08:21:08.859Z,5.38
2024-01-24T08:23:43.090Z,5.35
2024-01-24T08:26:17.002Z,6.05
2024-01-24T08:28:44.798Z,4.45
2024-01-24T08:31:13.067Z,4.35
2024-01-24T08:33:41.011Z,4.45
2024-01-24T08:36:08.665Z,6.50
2024-01-24T08:38:36.462Z,4.75
2024-01-24T08:41:06.257Z,4.18
2024-01-24T08:43:34.130Z,3.03
2024-01-24T08:46:01.661Z,3.65
2024-01-24T08:48:31.119Z,3.88
2024-01-24T08:50:58.705Z,4.00
2024-01-24T08:53:26.467Z,3.38
2024-01-24T08:55:54.016Z,3.42
2024-01-24T08:58:21.760Z,3.95
2024-01-24T09:00:49.284Z,3.92
2024-01-24T09:03:20.236Z,4.03
2024-01-24T09:05:48.393Z,3.85
2024-01-24T09:08:18.153Z,3.15
2024-01-24T09:10:45.628Z,3.08
2024-01-24T09:13:14.251Z,3.58
2024-01-24T09:15:41.747Z,3.35
2024-01-24T09:18:10.348Z,3.28
2024-01-24T09:20:37.923Z,3.42
2024-01-24T09:23:05.810Z,2.58
2024-01-24T09:25:33.733Z,3.20
2024-01-24T09:28:01.633Z,3.50
2024-01-24T09:30:29.139Z,3.35
2024-01-24T09:32:57.280Z,4.47
2024-01-24T09:35:24.976Z,3.67
2024-01-24T09:37:52.750Z,4.20
2024-01-24T09:40:20.437Z,2.70
2024-01-24T09:42:48.348Z,4.30
2024-01-24T09:45:17.943Z,5.22
2024-01-24T09:47:50.607Z,5.50
2024-01-24T09:52:47.855Z,6.10
2024-01-24T09:55:18.952Z,7.93
2024-01-24T09:57:47.799Z,5.90
2024-01-24T10:00:16.730Z,8.52
2024-01-24T10:02:47.152Z,8.95
2024-01-24T10:05:18.169Z,8.27
2024-01-24T10:07:47.166Z,9.63
2024-01-24T10:10:16.779Z,18.55
2024-01-24T10:12:45.376Z,7.28
2024-01-24T10:15:13.934Z,8.55
2024-01-24T10:17:48.120Z,7.18
2024-01-24T10:20:16.140Z,6.63
2024-01-24T10:22:46.354Z,6.75
2024-01-24T10:25:14.847Z,7.30
2024-01-24T10:27:43.600Z,6.72
2024-01-24T10:30:13.974Z,6.78
2024-01-24T10:32:49.794Z,11.25
2024-01-24T10:35:18.395Z,9.70
2024-01-24T10:37:47.575Z,10.98
2024-01-24T10:40:17.532Z,18.90
2024-01-24T10:42:50.967Z,31.05
2024-01-24T10:45:19.726Z,29.15
2024-01-24T10:47:55.055Z,60.03
2024-01-24T10:50:23.101Z,109.38
2024-01-24T10:52:54.929Z,169.20
2024-01-24T10:55:23.650Z,164.43
2024-01-24T10:57:53.394Z,214.82
2024-01-24T11:00:24.025Z,99.25
2024-01-24T11:02:55.528Z,181.30
2024-01-24T11:05:46.751Z,110.78
2024-01-24T11:08:36.077Z,71.38
2024-01-24T11:11:14.885Z,230.57
2024-01-24T11:13:44.177Z,215.07
2024-01-24T11:16:27.494Z,106.28
2024-01-24T11:18:58.951Z,138.13
2024-01-24T11:21:29.252Z,91.80
2024-01-24T11:23:57.475Z,13.40
2024-01-24T11:26:25.196Z,106.13
2024-01-24T11:29:14.414Z,67.30
2024-01-24T11:31:43.897Z,47.97
2024-01-24T11:34:13.469Z,31.67
2024-01-24T11:36:48.680Z,18.15
2024-01-24T11:39:32.618Z,53.92
2024-01-24T11:42:27.620Z,77.55
2024-01-24T11:44:55.762Z,89.32
2024-01-24T11:47:25.431Z,13.45
2024-01-24T11:49:53.772Z,16.83
2024-01-24T11:52:22.560Z,49.58
2024-01-24T11:54:53.833Z,52.80
2024-01-24T11:57:21.544Z,45.97
2024-01-24T11:59:49.426Z,30.00
2024-01-24T12:02:17.662Z,19.88
2024-01-24T12:04:45.464Z,11.25
2024-01-24T12:07:13.329Z,11.95
2024-01-24T12:09:41.907Z,14.55
2024-01-24T12:12:11.583Z,22.73
2024-01-24T12:14:40.612Z,12.65
2024-01-24T12:17:09.361Z,35.72
2024-01-24T12:19:37.994Z,28.67
2024-01-24T12:22:10.236Z,10.55
2024-01-24T12:24:42.394Z,12.63
2024-01-24T12:27:10.938Z,8.73
2024-01-24T12:29:39.156Z,10.30
2024-01-24T12:32:08.397Z,11.85
2024-01-24T12:34:37.251Z,18.55
2024-01-24T12:37:06.064Z,14.55
2024-01-24T12:39:34.728Z,7.80
2024-01-24T12:42:02.728Z,13.88
2024-01-24T12:44:31.219Z,6.68
2024-01-24T12:47:01.165Z,8.63
2024-01-24T12:49:29.296Z,7.45
2024-01-24T12:51:58.518Z,4.75
2024-01-24T12:54:28.583Z,3.80
2024-01-24T12:56:56.129Z,4.47
2024-01-24T12:59:24.147Z,5.90
2024-01-24T13:01:57.387Z,5.22
2024-01-24T13:04:25.363Z,4.18
2024-01-24T13:06:53.092Z,3.00
2024-01-24T13:09:21.344Z,2.28
2024-01-24T13:11:49.109Z,3.50
2024-01-24T13:14:16.903Z,4.03
2024-01-24T13:16:44.486Z,4.22
2024-01-24T13:19:12.337Z,6.05
2024-01-24T13:21:42.903Z,3.53
2024-01-24T13:24:13.097Z,3.08
2024-01-24T13:26:53.106Z,3.08
2024-01-24T13:29:20.973Z,3.70
2024-01-24T13:31:49.496Z,5.25
2024-01-24T13:34:18.124Z,5.40
2024-01-24T13:36:46.415Z,5.72
2024-01-24T13:39:17.399Z,5.03
2024-01-24T13:41:45.862Z,10.57
2024-01-24T13:44:15.518Z,14.88
2024-01-24T13:46:43.474Z,38.92
2024-01-24T13:49:12.520Z,15.68
2024-01-24T13:51:44.864Z,40.33
2024-01-24T13:54:13.419Z,35.97
2024-01-24T13:56:41.177Z,11.75
2024-01-24T13:59:10.720Z,37.47
2024-01-24T14:01:45.248Z,12.00
2024-01-24T14:04:16.606Z,15.85
2024-01-24T14:06:45.637Z,21.38
2024-01-24T14:09:13.523Z,10.30
2024-01-24T14:11:41.178Z,20.50
2024-01-24T14:14:09.419Z,16.13
2024-01-24T14:16:36.941Z,7.72
2024-01-24T14:19:04.745Z,10.98
2024-01-24T14:21:33.747Z,22.98
2024-01-24T14:24:01.905Z,13.23
2024-01-24T14:26:31.675Z,17.27
2024-01-24T14:29:01.539Z,63.20
2024-01-24T14:31:32.061Z,59.53
2024-01-24T14:34:01.218Z,29.90
2024-01-24T14:36:35.833Z,39.33
2024-01-24T14:39:05.751Z,39.42
2024-01-24T14:41:33.334Z,24.73
2024-01-24T14:44:01.516Z,42.50
2024-01-24T14:46:29.277Z,49.28
2024-01-24T14:48:57.813Z,20.55
2024-01-24T14:51:26.700Z,7.10
2024-01-24T14:53:54.714Z,6.78
2024-01-24T14:56:22.350Z,7.13
2024-01-24T14:58:50.286Z,8.00
2024-01-24T15:01:20.686Z,5.65
2024-01-24T15:03:50.192Z,7.47
2024-01-24T15:06:18.722Z,6.43
2024-01-24T15:08:46.961Z,6.63
2024-01-24T15:11:15.073Z,9.45
2024-01-24T15:13:42.791Z,8.93
2024-01-24T15:16:10.898Z,11.43
2024-01-24T15:18:39.820Z,11.80
2024-01-24T15:21:11.511Z,10.10
2024-01-24T15:23:41.868Z,11.75
2024-01-24T15:26:11.171Z,13.32
2024-01-24T15:28:40.550Z,34.00
2024-01-24T15:31:10.250Z,9.93
2024-01-24T15:33:39.337Z,8.73
2024-01-24T15:36:07.349Z,12.63
2024-01-24T15:38:36.425Z,23.02
2024-01-24T15:41:05.221Z,18.13
2024-01-24T15:43:38.750Z,85.65
2024-01-24T15:46:11.447Z,42.38
2024-01-24T15:48:39.565Z,116.25
2024-01-24T15:51:08.223Z,39.60
2024-01-24T15:53:36.141Z,55.90
2024-01-24T15:56:03.827Z,52.47
2024-01-24T15:58:31.959Z,128.00
2024-01-24T16:00:59.923Z,93.47
2024-01-24T16:03:32.666Z,16.95
2024-01-24T16:08:29.293Z,23.73
2024-01-24T16:10:57.646Z,24.25
2024-01-24T16:13:26.112Z,25.02
2024-01-24T16:15:53.758Z,14.13
2024-01-24T16:18:21.550Z,15.55
2024-01-24T16:20:49.683Z,29.55
2024-01-24T16:23:17.445Z,44.63
2024-01-24T16:25:44.947Z,50.75
2024-01-24T16:28:15.634Z,9.18
2024-01-24T16:30:44.078Z,8.85
2024-01-24T16:33:12.424Z,20.48
2024-01-24T16:35:39.979Z,21.80
2024-01-24T16:38:09.392Z,12.55
2024-01-24T16:40:36.757Z,18.33
2024-01-24T16:43:04.806Z,11.40
2024-01-24T16:45:33.041Z,51.60
2024-01-24T16:48:01.101Z,7.38
2024-01-24T16:50:28.597Z,15.15
2024-01-24T16:52:56.298Z,11.90
2024-01-24T16:55:24.527Z,23.50
2024-01-24T16:57:52.399Z,9.13
2024-01-24T17:00:20.264Z,14.48
2024-01-24T17:02:51.736Z,21.95
2024-01-24T17:05:25.389Z,8.95
2024-01-24T17:07:53.103Z,8.02
2024-01-24T17:10:21.559Z,5.15
2024-01-24T17:12:51.384Z,20.30
2024-01-24T17:15:25.000Z,8.20
2024-01-24T17:17:52.830Z,5.82
2024-01-24T17:20:20.353Z,4.60
2024-01-24T17:22:48.013Z,7.97
2024-01-24T17:25:18.310Z,8.27
2024-01-24T17:27:46.067Z,9.82
2024-01-24T17:30:14.693Z,10.93
2024-01-24T17:32:43.115Z,13.88
2024-01-24T17:35:10.996Z,6.47
2024-01-24T17:37:38.893Z,6.75
2024-01-24T17:40:08.579Z,18.77
2024-01-24T17:42:37.903Z,11.48
2024-01-24T17:45:05.973Z,11.05
2024-01-24T17:47:35.574Z,7.47
2024-01-24T17:50:04.416Z,21.13
2024-01-24T17:52:32.525Z,22.38
2024-01-24T17:55:01.629Z,10.25
2024-01-24T17:57:29.820Z,11.07
2024-01-24T18:00:00.917Z,9.27
2024-01-24T18:02:29.632Z,6.40
2024-01-24T18:04:58.741Z,16.40
2024-01-24T18:07:27.124Z,13.23
2024-01-24T18:09:56.884Z,5.82
2024-01-24T18:12:25.617Z,7.80
2024-01-24T18:14:53.947Z,8.27
2024-01-24T18:17:22.787Z,9.35
2024-01-24T18:19:51.342Z,7.85
2024-01-24T18:22:19.585Z,13.07
2024-01-24T18:24:47.966Z,5.65
2024-01-24T18:27:16.659Z,15.55
2024-01-24T18:29:46.073Z,10.50
2024-01-24T18:32:15.029Z,6.20
2024-01-24T18:34:44.054Z,13.43
2024-01-24T18:37:14.266Z,8.57
2024-01-24T18:39:42.897Z,5.72
2024-01-24T18:42:13.494Z,6.22
2024-01-24T18:44:41.913Z,7.38
2024-01-24T18:47:10.853Z,14.05
2024-01-24T18:49:41.581Z,5.22
2024-01-24T18:52:11.009Z,5.78
2024-01-24T18:54:39.503Z,9.95
2024-01-24T18:57:08.517Z,11.77
2024-01-24T18:59:37.049Z,5.15
2024-01-24T19:02:06.133Z,6.07
2024-01-24T19:04:34.730Z,8.18
2024-01-24T19:07:04.298Z,7.63
2024-01-24T19:09:35.280Z,7.70
2024-01-24T19:12:04.956Z,6.88
2024-01-24T19:14:33.362Z,8.55
2024-01-24T19:17:02.304Z,4.78
2024-01-24T19:19:30.877Z,7.80
2024-01-24T19:21:59.785Z,6.50
2024-01-24T19:24:28.512Z,5.78
2024-01-24T19:27:00.345Z,5.28
2024-01-24T19:29:29.913Z,4.63
2024-01-24T19:31:58.883Z,7.07
2024-01-24T19:34:27.661Z,6.25
2024-01-24T19:36:57.107Z,5.68
2024-01-24T19:39:26.093Z,5.47
2024-01-24T19:41:55.453Z,6.22
2024-01-24T19:44:24.967Z,6.03
2024-01-24T19:46:57.537Z,6.22
2024-01-24T19:49:26.593Z,6.10
2024-01-24T19:51:56.740Z,5.03
2024-01-24T19:54:29.871Z,8.00
2024-01-24T19:56:59.477Z,7.32
2024-01-24T19:59:28.840Z,5.10
2024-01-24T20:02:01.403Z,6.38
2024-01-24T20:04:31.229Z,6.47
2024-01-24T20:07:00.903Z,5.70
2024-01-24T20:09:30.081Z,6.53
2024-01-24T20:12:00.574Z,5.78
2024-01-24T20:14:29.467Z,5.05
2024-01-24T20:17:00.126Z,4.85
2024-01-24T20:19:29.433Z,4.68
2024-01-24T20:21:59.011Z,4.65
2024-01-24T20:24:28.139Z,4.90
2024-01-24T20:26:58.054Z,3.83
2024-01-24T20:29:27.549Z,4.22
2024-01-24T20:31:56.668Z,3.72
2024-01-24T20:34:25.382Z,4.60
2024-01-24T20:36:54.861Z,4.40
2024-01-24T20:39:26.092Z,4.28
2024-01-24T20:41:56.421Z,4.80
2024-01-24T20:44:26.825Z,4.60
2024-01-24T20:46:55.644Z,4.13
2024-01-24T20:49:25.757Z,5.05
2024-01-24T20:51:54.685Z,5.15
2024-01-24T20:54:23.061Z,4.07
2024-01-24T20:56:52.772Z,4.65
2024-01-24T20:59:23.125Z,6.55
2024-01-24T21:01:53.595Z,6.88
2024-01-24T21:04:22.084Z,4.13
2024-01-24T21:06:52.361Z,3.97
2024-01-24T21:09:21.448Z,6.30
2024-01-24T21:11:51.165Z,6.15
2024-01-24T21:14:20.097Z,6.32
2024-01-24T21:16:50.634Z,4.70
2024-01-24T21:19:25.072Z,9.93
2024-01-24T21:21:55.401Z,15.93
2024-01-24T21:24:23.127Z,9.10
2024-01-24T21:26:51.506Z,6.22
2024-01-24T21:29:19.153Z,4.57
2024-01-24T21:31:47.373Z,7.60
2024-01-24T21:34:18.070Z,4.65
2024-01-24T21:36:48.544Z,5.75
2024-01-24T21:39:17.926Z,5.35
2024-01-24T21:41:45.596Z,4.68
2024-01-24T21:44:13.089Z,4.25
2024-01-24T21:46:41.220Z,4.30
2024-01-24T21:49:09.042Z,6.07
2024-01-24T21:51:36.917Z,4.63
2024-01-24T21:54:06.824Z,5.40
2024-01-24T21:56:35.107Z,4.57
2024-01-24T21:59:02.495Z,6.03
2024-01-24T22:01:34.617Z,5.50
2024-01-24T22:04:04.358Z,5.18
2024-01-24T22:06:32.819Z,6.43
2024-01-24T22:09:00.845Z,5.38
2024-01-24T22:11:28.732Z,6.30
2024-01-24T22:13:56.307Z,5.97
2024-01-24T22:16:24.399Z,4.55
2024-01-24T22:18:52.006Z,4.28
2024-01-24T22:21:23.056Z,4.97
2024-01-24T22:23:50.592Z,4.53
2024-01-24T22:26:18.277Z,4.65
2024-01-24T22:28:45.652Z,4.50
2024-01-24T22:31:13.437Z,5.30
2024-01-24T22:33:41.137Z,4.50
2024-01-24T22:36:09.242Z,4.22
2024-01-24T22:38:36.582Z,4.65
2024-01-24T22:41:04.933Z,4.10
2024-01-24T22:43:32.551Z,5.25
2024-01-24T22:46:00.330Z,5.13
2024-01-24T22:48:28.274Z,2.90
2024-01-24T22:50:55.982Z,3.53
2024-01-24T22:53:23.781Z,5.20
2024-01-24T22:55:52.017Z,3.42
2024-01-24T22:58:20.490Z,3.95
2024-01-24T23:00:49.598Z,3.78
2024-01-24T23:03:17.339Z,3.47
2024-01-24T23:05:45.139Z,14.60
2024-01-24T23:08:12.740Z,5.63
2024-01-24T23:10:40.660Z,4.43
2024-01-24T23:13:08.130Z,5.03
2024-01-24T23:15:35.892Z,3.08
2024-01-24T23:18:03.367Z,3.67
2024-01-24T23:20:31.107Z,4.47
2024-01-24T23:22:58.747Z,5.07
2024-01-24T23:25:26.966Z,5.45
2024-01-24T23:27:54.438Z,3.80
2024-01-24T23:30:23.412Z,4.35
2024-01-24T23:32:51.014Z,3.58
2024-01-24T23:35:19.805Z,4.82
2024-01-24T23:37:47.611Z,3.90
2024-01-24T23:40:17.034Z,5.50
2024-01-24T23:42:44.761Z,4.00
2024-01-24T23:45:14.469Z,3.90
2024-01-24T23:47:43.505Z,4.82
2024-01-24T23:50:11.621Z,4.38
2024-01-24T23:52:39.259Z,4.55
2024-01-24T23:55:07.473Z,4.40
2024-01-24T23:57:35.234Z,4.95
